sensor_id;sensor_type;location;lat;lon;timestamp;temperature;humidity
75821;DHT22;64454;51.984;9.838;2023-03-31T00:02:04;13.10;1.00
75821;DHT22;64454;51.984;9.838;2023-03-31T00:04:38;13.10;1.00
75821;DHT22;64454;51.984;9.838;2023-03-31T00:07:11;13.10;1.00
75821;DHT22;64454;51.984;9.838;2023-03-31T00:09:42;13.20;1.00
75821;DHT22;64454;51.984;9.838;2023-03-31T00:12:11;13.10;1.00
75821;DHT22;64454;51.984;9.838;2023-03-31T00:14:39;13.00;1.00
75821;DHT22;64454;51.984;9.838;2023-03-31T00:17:07;13.00;1.00
75821;DHT22;64454;51.984;9.838;2023-03-31T00:19:34;13.10;1.00
75821;DHT22;64454;51.984;9.838;2023-03-31T00:22:01;13.00;1.00
75821;DHT22;64454;51.984;9.838;2023-03-31T00:24:30;13.00;1.00
75821;DHT22;64454;51.984;9.838;2023-03-31T00:27:00;13.00;1.00
75821;DHT22;64454;51.984;9.838;2023-03-31T00:29:28;13.00;1.00
75821;DHT22;64454;51.984;9.838;2023-03-31T00:31:58;13.00;1.00
75821;DHT22;64454;51.984;9.838;2023-03-31T00:34:25;13.10;1.00
75821;DHT22;64454;51.984;9.838;2023-03-31T00:36:53;13.10;1.00
75821;DHT22;64454;51.984;9.838;2023-03-31T00:39:21;13.20;1.00
75821;DHT22;64454;51.984;9.838;2023-03-31T00:41:50;13.20;1.00
75821;DHT22;64454;51.984;9.838;2023-03-31T00:44:21;13.10;1.00
75821;DHT22;64454;51.984;9.838;2023-03-31T00:46:51;13.10;1.00
75821;DHT22;64454;51.984;9.838;2023-03-31T00:49:27;13.10;1.00
75821;DHT22;64454;51.984;9.838;2023-03-31T00:52:01;13.10;1.00
75821;DHT22;64454;51.984;9.838;2023-03-31T00:54:33;13.00;1.00
75821;DHT22;64454;51.984;9.838;2023-03-31T00:57:03;13.00;1.00
75821;DHT22;64454;51.984;9.838;2023-03-31T00:59:37;13.00;1.00
75821;DHT22;64454;51.984;9.838;2023-03-31T01:02:09;13.00;1.00
75821;DHT22;64454;51.984;9.838;2023-03-31T01:04:43;13.00;1.00
75821;DHT22;64454;51.984;9.838;2023-03-31T01:07:18;12.90;1.00
75821;DHT22;64454;51.984;9.838;2023-03-31T01:09:50;12.80;1.00
75821;DHT22;64454;51.984;9.838;2023-03-31T01:12:24;12.80;1.00
75821;DHT22;64454;51.984;9.838;2023-03-31T01:14:54;12.80;1.00
75821;DHT22;64454;51.984;9.838;2023-03-31T01:17:21;12.80;1.00
75821;DHT22;64454;51.984;9.838;2023-03-31T01:19:56;12.70;1.00
75821;DHT22;64454;51.984;9.838;2023-03-31T01:23:04;12.70;1.00
75821;DHT22;64454;51.984;9.838;2023-03-31T01:26:41;12.60;1.00
75821;DHT22;64454;51.984;9.838;2023-03-31T01:29:47;12.60;1.00
75821;DHT22;64454;51.984;9.838;2023-03-31T01:32:53;12.50;1.00
75821;DHT22;64454;51.984;9.838;2023-03-31T01:39:48;12.50;1.00
75821;DHT22;64454;51.984;9.838;2023-03-31T01:42:28;12.50;1.00
75821;DHT22;64454;51.984;9.838;2023-03-31T01:45:01;12.50;1.00
75821;DHT22;64454;51.984;9.838;2023-03-31T01:47:43;12.50;1.00
75821;DHT22;64454;51.984;9.838;2023-03-31T01:50:21;12.50;1.00
75821;DHT22;64454;51.984;9.838;2023-03-31T01:52:57;12.40;1.00
75821;DHT22;64454;51.984;9.838;2023-03-31T01:55:34;12.50;1.00
75821;DHT22;64454;51.984;9.838;2023-03-31T01:58:08;12.40;1.00
75821;DHT22;64454;51.984;9.838;2023-03-31T02:00:40;12.50;1.00
75821;DHT22;64454;51.984;9.838;2023-03-31T02:03:15;12.40;1.00
75821;DHT22;64454;51.984;9.838;2023-03-31T02:05:48;12.40;1.00
75821;DHT22;64454;51.984;9.838;2023-03-31T02:08:21;12.30;1.00
75821;DHT22;64454;51.984;9.838;2023-03-31T02:10:52;12.30;1.00
75821;DHT22;64454;51.984;9.838;2023-03-31T02:13:22;12.30;1.00
75821;DHT22;64454;51.984;9.838;2023-03-31T02:15:55;12.30;1.00
75821;DHT22;64454;51.984;9.838;2023-03-31T02:18:27;12.20;1.00
75821;DHT22;64454;51.984;9.838;2023-03-31T02:20:58;12.10;1.00
75821;DHT22;64454;51.984;9.838;2023-03-31T02:23:28;12.20;1.00
75821;DHT22;64454;51.984;9.838;2023-03-31T02:26:00;12.20;1.00
75821;DHT22;64454;51.984;9.838;2023-03-31T02:28:30;12.20;1.00
75821;DHT22;64454;51.984;9.838;2023-03-31T02:31:06;12.20;1.00
75821;DHT22;64454;51.984;9.838;2023-03-31T02:33:41;12.30;1.00
75821;DHT22;64454;51.984;9.838;2023-03-31T02:36:08;12.30;1.00
75821;DHT22;64454;51.984;9.838;2023-03-31T02:38:39;12.40;1.00
75821;DHT22;64454;51.984;9.838;2023-03-31T02:41:12;12.40;1.00
75821;DHT22;64454;51.984;9.838;2023-03-31T02:43:40;12.40;1.00
75821;DHT22;64454;51.984;9.838;2023-03-31T02:46:07;12.30;1.00
75821;DHT22;64454;51.984;9.838;2023-03-31T02:48:36;12.30;1.00
75821;DHT22;64454;51.984;9.838;2023-03-31T02:51:31;12.20;1.00
75821;DHT22;64454;51.984;9.838;2023-03-31T03:00:59;12.20;1.00
75821;DHT22;64454;51.984;9.838;2023-03-31T03:03:40;12.10;1.00
75821;DHT22;64454;51.984;9.838;2023-03-31T03:06:21;12.10;2.50
75821;DHT22;64454;51.984;9.838;2023-03-31T03:09:15;12.00;5.80
75821;DHT22;64454;51.984;9.838;2023-03-31T03:12:00;12.00;8.10
75821;DHT22;64454;51.984;9.838;2023-03-31T03:14:38;12.00;10.00
75821;DHT22;64454;51.984;9.838;2023-03-31T03:17:15;12.10;10.70
75821;DHT22;64454;51.984;9.838;2023-03-31T03:19:51;12.00;20.10
75821;DHT22;64454;51.984;9.838;2023-03-31T03:22:20;11.90;15.20
75821;DHT22;64454;51.984;9.838;2023-03-31T03:24:47;12.00;13.10
75821;DHT22;64454;51.984;9.838;2023-03-31T03:27:15;11.90;17.80
75821;DHT22;64454;51.984;9.838;2023-03-31T03:29:43;11.80;23.00
75821;DHT22;64454;51.984;9.838;2023-03-31T03:32:10;11.80;26.80
75821;DHT22;64454;51.984;9.838;2023-03-31T03:34:37;11.80;27.90
75821;DHT22;64454;51.984;9.838;2023-03-31T03:37:04;11.80;30.80
75821;DHT22;64454;51.984;9.838;2023-03-31T03:39:31;11.90;35.10
75821;DHT22;64454;51.984;9.838;2023-03-31T03:41:58;12.00;22.80
75821;DHT22;64454;51.984;9.838;2023-03-31T03:44:25;12.00;14.30
75821;DHT22;64454;51.984;9.838;2023-03-31T03:46:53;11.90;16.50
75821;DHT22;64454;51.984;9.838;2023-03-31T03:49:20;12.00;18.60
75821;DHT22;64454;51.984;9.838;2023-03-31T03:51:47;12.00;19.30
75821;DHT22;64454;51.984;9.838;2023-03-31T03:54:15;12.00;12.70
75821;DHT22;64454;51.984;9.838;2023-03-31T03:56:43;12.00;15.50
75821;DHT22;64454;51.984;9.838;2023-03-31T03:59:11;11.90;18.50
75821;DHT22;64454;51.984;9.838;2023-03-31T04:01:38;12.00;19.10
75821;DHT22;64454;51.984;9.838;2023-03-31T04:04:06;11.90;16.90
75821;DHT22;64454;51.984;9.838;2023-03-31T04:06:33;11.90;27.70
75821;DHT22;64454;51.984;9.838;2023-03-31T04:09:00;11.90;25.00
75821;DHT22;64454;51.984;9.838;2023-03-31T04:11:28;12.00;19.60
75821;DHT22;64454;51.984;9.838;2023-03-31T04:13:55;12.00;19.00
75821;DHT22;64454;51.984;9.838;2023-03-31T04:16:21;12.00;20.10
75821;DHT22;64454;51.984;9.838;2023-03-31T04:18:49;12.10;19.90
75821;DHT22;64454;51.984;9.838;2023-03-31T04:21:18;12.10;15.00
75821;DHT22;64454;51.984;9.838;2023-03-31T04:23:48;12.20;18.80
75821;DHT22;64454;51.984;9.838;2023-03-31T04:26:24;12.20;13.70
75821;DHT22;64454;51.984;9.838;2023-03-31T04:28:55;12.20;10.60
75821;DHT22;64454;51.984;9.838;2023-03-31T04:31:25;12.20;9.90
75821;DHT22;64454;51.984;9.838;2023-03-31T04:33:55;12.20;9.90
75821;DHT22;64454;51.984;9.838;2023-03-31T04:36:27;12.20;7.90
75821;DHT22;64454;51.984;9.838;2023-03-31T04:38:56;12.20;7.80
75821;DHT22;64454;51.984;9.838;2023-03-31T04:41:24;12.00;11.60
75821;DHT22;64454;51.984;9.838;2023-03-31T04:43:52;11.90;17.00
75821;DHT22;64454;51.984;9.838;2023-03-31T04:46:19;11.80;22.10
75821;DHT22;64454;51.984;9.838;2023-03-31T04:48:46;11.80;29.40
75821;DHT22;64454;51.984;9.838;2023-03-31T04:51:13;11.80;33.20
75821;DHT22;64454;51.984;9.838;2023-03-31T04:53:42;11.70;35.10
75821;DHT22;64454;51.984;9.838;2023-03-31T04:56:08;11.70;43.10
75821;DHT22;64454;51.984;9.838;2023-03-31T04:58:35;11.70;43.60
75821;DHT22;64454;51.984;9.838;2023-03-31T05:01:02;11.70;46.50
75821;DHT22;64454;51.984;9.838;2023-03-31T05:03:31;11.80;45.70
75821;DHT22;64454;51.984;9.838;2023-03-31T05:05:59;11.80;46.10
75821;DHT22;64454;51.984;9.838;2023-03-31T05:08:26;11.80;42.60
75821;DHT22;64454;51.984;9.838;2023-03-31T05:10:54;11.80;42.40
75821;DHT22;64454;51.984;9.838;2023-03-31T05:13:20;11.80;47.30
75821;DHT22;64454;51.984;9.838;2023-03-31T05:15:47;11.90;37.00
75821;DHT22;64454;51.984;9.838;2023-03-31T05:18:16;12.00;34.20
75821;DHT22;64454;51.984;9.838;2023-03-31T05:20:43;12.00;29.50
75821;DHT22;64454;51.984;9.838;2023-03-31T05:23:10;12.10;25.80
75821;DHT22;64454;51.984;9.838;2023-03-31T05:25:36;12.10;22.50
75821;DHT22;64454;51.984;9.838;2023-03-31T05:28:05;12.00;25.50
75821;DHT22;64454;51.984;9.838;2023-03-31T05:30:31;12.00;32.00
75821;DHT22;64454;51.984;9.838;2023-03-31T05:32:58;12.00;32.80
75821;DHT22;64454;51.984;9.838;2023-03-31T05:35:25;12.00;30.00
75821;DHT22;64454;51.984;9.838;2023-03-31T05:37:52;12.10;33.50
75821;DHT22;64454;51.984;9.838;2023-03-31T05:40:19;12.10;35.50
75821;DHT22;64454;51.984;9.838;2023-03-31T05:42:45;12.10;34.80
75821;DHT22;64454;51.984;9.838;2023-03-31T05:45:14;12.10;38.80
75821;DHT22;64454;51.984;9.838;2023-03-31T05:47:41;12.10;28.90
75821;DHT22;64454;51.984;9.838;2023-03-31T05:50:08;12.10;33.50
75821;DHT22;64454;51.984;9.838;2023-03-31T05:52:35;12.10;30.80
75821;DHT22;64454;51.984;9.838;2023-03-31T05:55:02;12.10;30.40
75821;DHT22;64454;51.984;9.838;2023-03-31T05:57:29;12.20;29.60
75821;DHT22;64454;51.984;9.838;2023-03-31T05:59:56;12.20;29.30
75821;DHT22;64454;51.984;9.838;2023-03-31T06:02:24;12.20;28.60
75821;DHT22;64454;51.984;9.838;2023-03-31T06:04:51;12.20;33.60
75821;DHT22;64454;51.984;9.838;2023-03-31T06:07:18;12.20;27.50
75821;DHT22;64454;51.984;9.838;2023-03-31T06:09:46;12.20;26.70
75821;DHT22;64454;51.984;9.838;2023-03-31T06:12:13;12.10;30.30
75821;DHT22;64454;51.984;9.838;2023-03-31T06:14:41;12.00;39.00
75821;DHT22;64454;51.984;9.838;2023-03-31T06:17:07;12.10;36.80
75821;DHT22;64454;51.984;9.838;2023-03-31T06:19:35;12.00;45.80
75821;DHT22;64454;51.984;9.838;2023-03-31T06:22:02;12.00;59.40
75821;DHT22;64454;51.984;9.838;2023-03-31T06:24:29;12.00;75.80
75821;DHT22;64454;51.984;9.838;2023-03-31T06:26:56;11.90;85.20
75821;DHT22;64454;51.984;9.838;2023-03-31T06:29:25;11.80;97.50
75821;DHT22;64454;51.984;9.838;2023-03-31T06:31:52;11.90;99.90
75821;DHT22;64454;51.984;9.838;2023-03-31T06:34:20;11.90;99.90
75821;DHT22;64454;51.984;9.838;2023-03-31T06:36:48;11.90;99.90
75821;DHT22;64454;51.984;9.838;2023-03-31T06:39:17;12.00;99.90
75821;DHT22;64454;51.984;9.838;2023-03-31T06:41:45;12.00;99.90
75821;DHT22;64454;51.984;9.838;2023-03-31T06:44:12;12.10;99.90
75821;DHT22;64454;51.984;9.838;2023-03-31T06:46:41;12.00;99.90
75821;DHT22;64454;51.984;9.838;2023-03-31T06:49:07;12.00;99.90
75821;DHT22;64454;51.984;9.838;2023-03-31T06:51:34;12.00;99.90
75821;DHT22;64454;51.984;9.838;2023-03-31T06:54:02;12.10;99.90
75821;DHT22;64454;51.984;9.838;2023-03-31T06:56:29;12.10;99.90
75821;DHT22;64454;51.984;9.838;2023-03-31T06:58:56;12.20;99.90
75821;DHT22;64454;51.984;9.838;2023-03-31T07:01:23;12.20;99.90
75821;DHT22;64454;51.984;9.838;2023-03-31T07:03:49;12.30;99.90
75821;DHT22;64454;51.984;9.838;2023-03-31T07:06:16;12.10;99.90
75821;DHT22;64454;51.984;9.838;2023-03-31T07:08:43;12.10;99.90
75821;DHT22;64454;51.984;9.838;2023-03-31T07:11:11;12.10;99.90
75821;DHT22;64454;51.984;9.838;2023-03-31T07:13:38;12.20;99.90
75821;DHT22;64454;51.984;9.838;2023-03-31T07:16:05;12.20;99.90
75821;DHT22;64454;51.984;9.838;2023-03-31T07:18:34;12.10;99.90
75821;DHT22;64454;51.984;9.838;2023-03-31T07:21:01;12.20;99.90
75821;DHT22;64454;51.984;9.838;2023-03-31T07:23:30;12.30;99.90
75821;DHT22;64454;51.984;9.838;2023-03-31T07:25:56;12.30;99.90
75821;DHT22;64454;51.984;9.838;2023-03-31T07:28:28;12.20;99.90
75821;DHT22;64454;51.984;9.838;2023-03-31T07:30:55;12.30;99.90
75821;DHT22;64454;51.984;9.838;2023-03-31T07:33:22;12.30;99.90
75821;DHT22;64454;51.984;9.838;2023-03-31T07:35:50;12.30;99.90
75821;DHT22;64454;51.984;9.838;2023-03-31T07:38:17;12.30;99.90
75821;DHT22;64454;51.984;9.838;2023-03-31T07:40:44;12.30;99.90
75821;DHT22;64454;51.984;9.838;2023-03-31T07:43:11;12.30;99.90
75821;DHT22;64454;51.984;9.838;2023-03-31T07:45:39;12.40;99.90
75821;DHT22;64454;51.984;9.838;2023-03-31T07:48:06;12.40;99.90
75821;DHT22;64454;51.984;9.838;2023-03-31T07:50:33;12.50;99.90
75821;DHT22;64454;51.984;9.838;2023-03-31T07:53:00;12.50;99.90
75821;DHT22;64454;51.984;9.838;2023-03-31T07:55:27;12.40;99.90
75821;DHT22;64454;51.984;9.838;2023-03-31T07:57:55;12.40;99.90
75821;DHT22;64454;51.984;9.838;2023-03-31T08:00:23;12.30;99.90
75821;DHT22;64454;51.984;9.838;2023-03-31T08:02:51;12.40;99.90
75821;DHT22;64454;51.984;9.838;2023-03-31T08:05:19;12.50;99.90
75821;DHT22;64454;51.984;9.838;2023-03-31T08:07:48;12.60;99.90
75821;DHT22;64454;51.984;9.838;2023-03-31T08:10:17;12.60;99.90
75821;DHT22;64454;51.984;9.838;2023-03-31T08:12:46;12.60;99.90
75821;DHT22;64454;51.984;9.838;2023-03-31T08:15:13;12.70;99.90
75821;DHT22;64454;51.984;9.838;2023-03-31T08:17:40;12.70;98.50
75821;DHT22;64454;51.984;9.838;2023-03-31T08:20:10;12.80;97.50
75821;DHT22;64454;51.984;9.838;2023-03-31T08:22:38;12.80;84.60
75821;DHT22;64454;51.984;9.838;2023-03-31T08:25:06;12.80;88.30
75821;DHT22;64454;51.984;9.838;2023-03-31T08:27:35;12.80;77.40
75821;DHT22;64454;51.984;9.838;2023-03-31T08:30:04;12.80;81.50
75821;DHT22;64454;51.984;9.838;2023-03-31T08:32:32;12.70;90.70
75821;DHT22;64454;51.984;9.838;2023-03-31T08:35:00;12.70;94.00
75821;DHT22;64454;51.984;9.838;2023-03-31T08:37:28;12.60;99.90
75821;DHT22;64454;51.984;9.838;2023-03-31T08:39:55;12.50;99.90
75821;DHT22;64454;51.984;9.838;2023-03-31T08:42:29;12.60;99.90
75821;DHT22;64454;51.984;9.838;2023-03-31T08:45:04;12.60;99.90
75821;DHT22;64454;51.984;9.838;2023-03-31T08:47:37;12.70;99.90
75821;DHT22;64454;51.984;9.838;2023-03-31T08:50:10;12.80;99.90
75821;DHT22;64454;51.984;9.838;2023-03-31T08:52:45;12.70;99.90
75821;DHT22;64454;51.984;9.838;2023-03-31T08:55:21;12.80;99.90
75821;DHT22;64454;51.984;9.838;2023-03-31T08:57:56;12.80;99.90
75821;DHT22;64454;51.984;9.838;2023-03-31T09:00:30;12.80;99.90
75821;DHT22;64454;51.984;9.838;2023-03-31T09:03:12;12.90;99.90
75821;DHT22;64454;51.984;9.838;2023-03-31T09:05:53;12.80;97.20
75821;DHT22;64454;51.984;9.838;2023-03-31T09:08:32;12.50;99.90
75821;DHT22;64454;51.984;9.838;2023-03-31T09:11:13;12.40;99.90
75821;DHT22;64454;51.984;9.838;2023-03-31T09:14:08;12.30;99.90
75821;DHT22;64454;51.984;9.838;2023-03-31T09:16:55;12.30;99.90
75821;DHT22;64454;51.984;9.838;2023-03-31T09:19:35;12.30;99.90
75821;DHT22;64454;51.984;9.838;2023-03-31T09:22:10;12.20;99.90
75821;DHT22;64454;51.984;9.838;2023-03-31T09:24:48;12.00;99.90
75821;DHT22;64454;51.984;9.838;2023-03-31T09:27:19;12.10;99.90
75821;DHT22;64454;51.984;9.838;2023-03-31T09:29:49;12.20;99.90
75821;DHT22;64454;51.984;9.838;2023-03-31T09:32:20;12.10;99.90
75821;DHT22;64454;51.984;9.838;2023-03-31T09:34:51;12.20;99.90
75821;DHT22;64454;51.984;9.838;2023-03-31T09:37:24;12.20;99.90
75821;DHT22;64454;51.984;9.838;2023-03-31T09:39:55;12.20;99.90
75821;DHT22;64454;51.984;9.838;2023-03-31T09:42:23;12.10;99.90
75821;DHT22;64454;51.984;9.838;2023-03-31T09:44:50;12.00;99.90
75821;DHT22;64454;51.984;9.838;2023-03-31T09:47:20;11.80;99.90
75821;DHT22;64454;51.984;9.838;2023-03-31T09:49:54;11.80;99.90
75821;DHT22;64454;51.984;9.838;2023-03-31T09:52:26;11.80;99.90
75821;DHT22;64454;51.984;9.838;2023-03-31T09:54:59;11.90;99.90
75821;DHT22;64454;51.984;9.838;2023-03-31T09:57:29;11.80;99.90
75821;DHT22;64454;51.984;9.838;2023-03-31T10:00:03;11.80;99.90
75821;DHT22;64454;51.984;9.838;2023-03-31T10:02:41;11.90;99.90
75821;DHT22;64454;51.984;9.838;2023-03-31T10:05:21;11.90;99.90
75821;DHT22;64454;51.984;9.838;2023-03-31T10:08:12;12.00;99.90
75821;DHT22;64454;51.984;9.838;2023-03-31T10:10:48;12.10;99.90
75821;DHT22;64454;51.984;9.838;2023-03-31T10:13:20;12.10;99.90
75821;DHT22;64454;51.984;9.838;2023-03-31T10:15:52;12.00;99.90
75821;DHT22;64454;51.984;9.838;2023-03-31T10:18:20;12.00;99.90
75821;DHT22;64454;51.984;9.838;2023-03-31T10:20:59;12.00;99.90
75821;DHT22;64454;51.984;9.838;2023-03-31T10:23:30;12.00;99.90
75821;DHT22;64454;51.984;9.838;2023-03-31T10:26:01;12.10;99.90
75821;DHT22;64454;51.984;9.838;2023-03-31T10:28:32;12.10;99.90
75821;DHT22;64454;51.984;9.838;2023-03-31T10:31:00;12.10;99.90
75821;DHT22;64454;51.984;9.838;2023-03-31T10:33:30;12.10;99.90
75821;DHT22;64454;51.984;9.838;2023-03-31T10:36:00;12.20;99.90
75821;DHT22;64454;51.984;9.838;2023-03-31T10:38:36;12.30;99.90
75821;DHT22;64454;51.984;9.838;2023-03-31T10:41:06;12.30;99.90
75821;DHT22;64454;51.984;9.838;2023-03-31T10:43:38;12.30;99.90
75821;DHT22;64454;51.984;9.838;2023-03-31T10:46:06;12.30;99.90
75821;DHT22;64454;51.984;9.838;2023-03-31T10:48:35;12.40;99.90
75821;DHT22;64454;51.984;9.838;2023-03-31T10:51:10;12.40;99.90
75821;DHT22;64454;51.984;9.838;2023-03-31T10:53:40;12.40;99.90
75821;DHT22;64454;51.984;9.838;2023-03-31T10:56:20;12.40;99.90
75821;DHT22;64454;51.984;9.838;2023-03-31T11:02:03;12.40;99.90
75821;DHT22;64454;51.984;9.838;2023-03-31T11:04:54;12.30;99.90
75821;DHT22;64454;51.984;9.838;2023-03-31T11:07:38;12.30;99.90
75821;DHT22;64454;51.984;9.838;2023-03-31T11:10:36;12.40;99.90
75821;DHT22;64454;51.984;9.838;2023-03-31T11:13:21;12.60;99.90
75821;DHT22;64454;51.984;9.838;2023-03-31T11:16:00;12.80;99.90
75821;DHT22;64454;51.984;9.838;2023-03-31T11:18:51;12.90;99.90
75821;DHT22;64454;51.984;9.838;2023-03-31T11:21:34;13.00;99.90
75821;DHT22;64454;51.984;9.838;2023-03-31T11:24:18;13.30;99.90
75821;DHT22;64454;51.984;9.838;2023-03-31T11:27:05;13.30;99.90
75821;DHT22;64454;51.984;9.838;2023-03-31T11:29:48;13.30;99.90
75821;DHT22;64454;51.984;9.838;2023-03-31T11:32:32;13.20;99.90
75821;DHT22;64454;51.984;9.838;2023-03-31T11:35:20;13.00;76.90
75821;DHT22;64454;51.984;9.838;2023-03-31T11:38:13;12.90;99.90
75821;DHT22;64454;51.984;9.838;2023-03-31T11:40:58;12.60;99.90
75821;DHT22;64454;51.984;9.838;2023-03-31T11:43:30;12.40;99.90
75821;DHT22;64454;51.984;9.838;2023-03-31T11:46:08;12.40;99.90
75821;DHT22;64454;51.984;9.838;2023-03-31T11:48:44;12.40;99.90
75821;DHT22;64454;51.984;9.838;2023-03-31T11:51:16;12.40;99.90
75821;DHT22;64454;51.984;9.838;2023-03-31T11:53:48;12.40;99.90
75821;DHT22;64454;51.984;9.838;2023-03-31T11:56:19;12.50;99.90
75821;DHT22;64454;51.984;9.838;2023-03-31T11:58:51;12.60;99.90
75821;DHT22;64454;51.984;9.838;2023-03-31T12:01:25;12.60;99.90
75821;DHT22;64454;51.984;9.838;2023-03-31T12:04:01;12.60;99.90
75821;DHT22;64454;51.984;9.838;2023-03-31T12:06:38;12.70;99.90
75821;DHT22;64454;51.984;9.838;2023-03-31T12:09:14;12.70;99.90
75821;DHT22;64454;51.984;9.838;2023-03-31T12:11:52;12.70;99.90
75821;DHT22;64454;51.984;9.838;2023-03-31T12:14:27;12.80;99.90
75821;DHT22;64454;51.984;9.838;2023-03-31T12:17:02;12.80;99.90
75821;DHT22;64454;51.984;9.838;2023-03-31T12:19:43;12.70;99.90
75821;DHT22;64454;51.984;9.838;2023-03-31T12:22:17;12.70;99.90
75821;DHT22;64454;51.984;9.838;2023-03-31T12:24:47;12.60;99.90
75821;DHT22;64454;51.984;9.838;2023-03-31T12:27:17;12.50;99.90
75821;DHT22;64454;51.984;9.838;2023-03-31T12:29:52;12.50;99.90
75821;DHT22;64454;51.984;9.838;2023-03-31T12:32:26;12.40;99.90
75821;DHT22;64454;51.984;9.838;2023-03-31T12:34:58;12.40;99.90
75821;DHT22;64454;51.984;9.838;2023-03-31T12:38:04;12.30;99.90
75821;DHT22;64454;51.984;9.838;2023-03-31T12:40:48;12.30;95.20
75821;DHT22;64454;51.984;9.838;2023-03-31T12:43:36;12.30;77.60
75821;DHT22;64454;51.984;9.838;2023-03-31T12:46:55;12.30;99.90
75821;DHT22;64454;51.984;9.838;2023-03-31T12:49:46;12.30;86.00
75821;DHT22;64454;51.984;9.838;2023-03-31T12:52:39;12.30;99.90
75821;DHT22;64454;51.984;9.838;2023-03-31T12:55:30;12.30;99.90
75821;DHT22;64454;51.984;9.838;2023-03-31T12:58:36;12.40;99.90
75821;DHT22;64454;51.984;9.838;2023-03-31T13:01:06;12.50;99.90
75821;DHT22;64454;51.984;9.838;2023-03-31T13:03:47;12.60;99.90
75821;DHT22;64454;51.984;9.838;2023-03-31T13:06:52;12.80;99.90
75821;DHT22;64454;51.984;9.838;2023-03-31T13:09:40;13.00;99.90
75821;DHT22;64454;51.984;9.838;2023-03-31T13:12:22;13.40;99.90
75821;DHT22;64454;51.984;9.838;2023-03-31T13:14:53;13.70;57.90
75821;DHT22;64454;51.984;9.838;2023-03-31T13:17:27;14.00;38.40
75821;DHT22;64454;51.984;9.838;2023-03-31T13:20:15;14.20;17.60
75821;DHT22;64454;51.984;9.838;2023-03-31T13:22:59;14.30;1.00
75821;DHT22;64454;51.984;9.838;2023-03-31T13:25:40;14.40;5.40
75821;DHT22;64454;51.984;9.838;2023-03-31T13:31:01;14.30;1.00
75821;DHT22;64454;51.984;9.838;2023-03-31T13:33:35;14.10;1.00
75821;DHT22;64454;51.984;9.838;2023-03-31T13:39:42;13.90;16.70
75821;DHT22;64454;51.984;9.838;2023-03-31T13:42:38;13.80;22.30
75821;DHT22;64454;51.984;9.838;2023-03-31T13:45:25;13.50;39.60
75821;DHT22;64454;51.984;9.838;2023-03-31T13:48:17;13.30;45.00
75821;DHT22;64454;51.984;9.838;2023-03-31T13:51:13;13.10;77.30
75821;DHT22;64454;51.984;9.838;2023-03-31T13:57:25;12.90;85.90
75821;DHT22;64454;51.984;9.838;2023-03-31T14:00:19;12.80;39.10
75821;DHT22;64454;51.984;9.838;2023-03-31T14:03:26;12.80;47.50
75821;DHT22;64454;51.984;9.838;2023-03-31T14:06:01;13.10;45.10
75821;DHT22;64454;51.984;9.838;2023-03-31T14:08:44;13.90;3.50
75821;DHT22;64454;51.984;9.838;2023-03-31T14:11:23;14.60;1.00
75821;DHT22;64454;51.984;9.838;2023-03-31T14:14:04;15.10;1.00
75821;DHT22;64454;51.984;9.838;2023-03-31T14:16:35;15.40;1.00
75821;DHT22;64454;51.984;9.838;2023-03-31T14:19:15;15.90;1.00
75821;DHT22;64454;51.984;9.838;2023-03-31T14:22:09;17.40;1.00
75821;DHT22;64454;51.984;9.838;2023-03-31T14:24:49;18.30;1.00
75821;DHT22;64454;51.984;9.838;2023-03-31T14:27:35;18.70;1.00
75821;DHT22;64454;51.984;9.838;2023-03-31T14:30:19;18.50;1.00
75821;DHT22;64454;51.984;9.838;2023-03-31T14:33:04;18.60;1.00
75821;DHT22;64454;51.984;9.838;2023-03-31T14:35:42;18.50;1.00
75821;DHT22;64454;51.984;9.838;2023-03-31T14:38:18;18.60;1.00
75821;DHT22;64454;51.984;9.838;2023-03-31T14:40:48;19.60;1.00
75821;DHT22;64454;51.984;9.838;2023-03-31T14:43:21;21.20;1.00
75821;DHT22;64454;51.984;9.838;2023-03-31T14:45:58;22.40;1.00
75821;DHT22;64454;51.984;9.838;2023-03-31T14:48:27;24.20;1.00
75821;DHT22;64454;51.984;9.838;2023-03-31T14:50:57;26.00;1.00
75821;DHT22;64454;51.984;9.838;2023-03-31T14:53:26;26.30;1.00
75821;DHT22;64454;51.984;9.838;2023-03-31T14:56:00;25.70;1.00
75821;DHT22;64454;51.984;9.838;2023-03-31T14:58:33;25.10;1.00
75821;DHT22;64454;51.984;9.838;2023-03-31T15:01:02;24.20;1.00
75821;DHT22;64454;51.984;9.838;2023-03-31T15:03:33;23.70;1.00
75821;DHT22;64454;51.984;9.838;2023-03-31T15:06:02;22.70;1.00
75821;DHT22;64454;51.984;9.838;2023-03-31T15:08:31;22.40;1.00
75821;DHT22;64454;51.984;9.838;2023-03-31T15:11:00;22.40;1.00
75821;DHT22;64454;51.984;9.838;2023-03-31T15:13:33;22.30;1.00
75821;DHT22;64454;51.984;9.838;2023-03-31T15:16:20;22.00;1.00
75821;DHT22;64454;51.984;9.838;2023-03-31T15:18:56;21.70;1.00
75821;DHT22;64454;51.984;9.838;2023-03-31T15:21:26;20.90;1.00
75821;DHT22;64454;51.984;9.838;2023-03-31T15:23:57;20.10;1.00
75821;DHT22;64454;51.984;9.838;2023-03-31T15:26:27;19.60;1.00
75821;DHT22;64454;51.984;9.838;2023-03-31T15:29:02;19.00;1.00
75821;DHT22;64454;51.984;9.838;2023-03-31T15:31:32;18.20;1.00
75821;DHT22;64454;51.984;9.838;2023-03-31T15:33:59;17.70;1.00
75821;DHT22;64454;51.984;9.838;2023-03-31T15:36:37;17.20;1.00
75821;DHT22;64454;51.984;9.838;2023-03-31T15:39:04;16.90;1.00
75821;DHT22;64454;51.984;9.838;2023-03-31T15:41:31;16.80;1.00
75821;DHT22;64454;51.984;9.838;2023-03-31T15:44:05;16.70;1.00
75821;DHT22;64454;51.984;9.838;2023-03-31T15:46:54;16.20;1.00
75821;DHT22;64454;51.984;9.838;2023-03-31T15:49:25;16.00;1.00
75821;DHT22;64454;51.984;9.838;2023-03-31T15:51:53;15.80;1.00
75821;DHT22;64454;51.984;9.838;2023-03-31T15:54:33;15.60;1.00
75821;DHT22;64454;51.984;9.838;2023-03-31T15:57:03;15.40;1.00
75821;DHT22;64454;51.984;9.838;2023-03-31T15:59:43;15.30;1.00
75821;DHT22;64454;51.984;9.838;2023-03-31T16:02:15;15.40;1.00
75821;DHT22;64454;51.984;9.838;2023-03-31T16:04:47;15.20;1.00
75821;DHT22;64454;51.984;9.838;2023-03-31T16:07:19;15.30;1.00
75821;DHT22;64454;51.984;9.838;2023-03-31T16:09:51;15.40;1.00
75821;DHT22;64454;51.984;9.838;2023-03-31T16:12:27;15.30;1.00
75821;DHT22;64454;51.984;9.838;2023-03-31T16:15:02;15.30;1.00
75821;DHT22;64454;51.984;9.838;2023-03-31T16:17:36;15.20;1.00
75821;DHT22;64454;51.984;9.838;2023-03-31T16:20:09;15.10;1.00
75821;DHT22;64454;51.984;9.838;2023-03-31T16:22:47;14.90;1.00
75821;DHT22;64454;51.984;9.838;2023-03-31T16:25:18;14.80;1.00
75821;DHT22;64454;51.984;9.838;2023-03-31T16:27:48;14.80;1.00
75821;DHT22;64454;51.984;9.838;2023-03-31T16:30:21;14.80;1.00
75821;DHT22;64454;51.984;9.838;2023-03-31T16:33:00;14.70;1.00
75821;DHT22;64454;51.984;9.838;2023-03-31T16:35:32;14.70;1.00
75821;DHT22;64454;51.984;9.838;2023-03-31T16:38:02;14.60;1.00
75821;DHT22;64454;51.984;9.838;2023-03-31T16:40:29;14.60;1.00
75821;DHT22;64454;51.984;9.838;2023-03-31T16:43:10;14.60;1.00